Terminal Aerodrome Forecast
Issued by NWS Dallas/Fort Worth, TX

Current Version | Previous Version | Text Only | Print | Product List | Glossary On
Versions: 1 2 3 4 5 6 7 8 9 10 11 12 13 14 15 16 17 18 19 20 21 22 23 24 25 26 27 28
844
FTUS44 KFWD 261736
TAFDFW
TAF
KDFW 261736Z 2618/2724 16016KT P6SM VCSH FEW030 BKN130
     FM262200 16017G27KT P6SM VCTS BKN040CB
     FM270100 17015G25KT 6SM -TSRA OVC040CB
     FM270600 18016KT 6SM -SHRA OVC009
     FM271500 17014KT 6SM -SHRA OVC025
     FM272000 17015G25KT P6SM OVC030=

USA.gov is the U.S. government's official web portal to all federal, state and local government web resources and services.